LDPL Informações do Aeroporto

Informações da Pista
Pista 09 Comprimento 9678 ft Largura 148 ft
Elevação 169 ft Limite 0 ft Heading 88
Pista 27 Comprimento 9678 ft Largura 148 ft
Elevação 274 ft Limite 0 ft Heading 268
Frequências do Aeroporto
Tipo APP Nome APP Frequência 118.4 MHZ
Tipo TWR Nome TWR Frequência 120 MHZ
Navaids do Aeroporto
Tipo NDB Nome Cres Frequência 433 KHZ
Tipo NDB Nome Kavran Frequência 265 KHZ
Tipo NDB Nome Pula Frequência 352 KHZ
Tipo VOR-DME Nome Pula Frequência 111250 KHZ
Informações meteorológicas do aeroporto e NOTAM
ADDS - METARS form results

(0235 UTC 27 June 2019)
Data provider http://aviationweather.gov/metar/data/
 
METAR text: LDPL 270230Z VRB02KT CAVOK 24/15 Q1019 NOSIG
Conditions at: LDPL (PULA , HR) observed 0230 UTC 27 June 2019
Temperature: 24.0°C (75°F)
Dewpoint: 15.0°C (59°F) [RH = 57%]
Pressure (altimeter): 30.09 inches Hg (1019.0 mb)
Winds: variable direction winds at 2 MPH (2 knots; 1.0 m/s)
Visibility: 6 or more miles (10+ km)
Ceiling: ceiling and visibility are OK
Clouds: unknown
Weather: no significant weather observed at this time

METAR text: LDPL 270200Z 36003KT 300V050 CAVOK 26/15 Q1019 NOSIG
Conditions at: LDPL (PULA , HR) observed 0200 UTC 27 June 2019
Temperature: 26.0°C (79°F)
Dewpoint: 15.0°C (59°F) [RH = 51%]
Pressure (altimeter): 30.09 inches Hg (1019.0 mb)
Winds: from the N (360 degrees) at 3 MPH (3 knots; 1.5 m/s)
Visibility: 6 or more miles (10+ km)
Ceiling: ceiling and visibility are OK
Clouds: unknown
Weather: no significant weather observed at this time

Forecast for: LDPL (PULA , HR)
Text: TAF LDPL 262325Z 2700/2800 06006KT CAVOK TX34/2713Z TN24/2703Z
Forecast period: 0000 to 1100 UTC 27 June 2019
Forecast type: FROM: standard forecast or significant change
Winds: from the ENE (60 degrees) at 7 MPH (6 knots; 3.1 m/s)
Visibility: 6 or more miles 10+ km)
Ceiling: unknown
Clouds: missing
Weather: no significant weather forecast for this period
Text: BECMG 2711/2713 28008KT
Forecast period: 1100 to 2000 UTC 27 June 2019
Forecast type: BECOMING: Conditions expected to become as follows by 1300 UTC 27 June 2019
Winds: from the W (280 degrees) at 9 MPH (8 knots; 4.1 m/s)
Visibility: 6 or more miles 10+ km)
Ceiling: unknown
Clouds: missing
Weather: no significant weather forecast for this period
Text: BECMG 2720/2722 06006KT
Forecast period: 2000 UTC 27 June 2019 to 0000 UTC 28 June 2019
Forecast type: BECOMING: Conditions expected to become as follows by 2200 UTC 27 June 2019
Winds: from the ENE (60 degrees) at 7 MPH (6 knots; 3.1 m/s)
Visibility: 6 or more miles 10+ km)
Ceiling: unknown
Clouds: missing
Weather: no significant weather forecast for this period